Time;durP1;ratioP1;P1;durP2;ratioP2;P2;SDS_P1;SDS_P2;PMS_P1;PMS_P2;Temp;Humidity;BMP_temperature;BMP_pressure;BME280_temperature;BME280_humidity;BME280_pressure;Samples;Min_cycle;Max_cycle;Signal;HPM_P1;HPM_P2
2020/12/15 00:01:58;;;;;;;184.82;102.82;;;;;;;4.12;79.38;94818.20;1717683;82;21242;-51
2020/12/15 00:04:26;;;;;;;175.95;98.92;;;;;;;4.17;79.30;94824.56;1705685;83;21476;-50
2020/12/15 00:06:55;;;;;;;179.93;98.75;;;;;;;4.20;79.21;94820.27;1711241;82;21064;-50
2020/12/15 00:09:25;;;;;;;169.85;95.95;;;;;;;4.20;79.38;94831.91;1698667;83;21073;-50
2020/12/15 00:11:53;;;;;;;176.27;97.37;;;;;;;4.22;79.16;94821.38;1704388;83;21211;-50
2020/12/15 00:14:21;;;;;;;181.43;98.20;;;;;;;4.18;79.14;94814.42;1760609;80;21254;-49
2020/12/15 00:16:50;;;;;;;195.77;103.83;;;;;;;4.18;79.16;94814.42;1771275;80;21191;-50
2020/12/15 00:19:18;;;;;;;184.65;94.32;;;;;;;4.17;79.12;94814.24;1771321;80;21475;-49
2020/12/15 00:21:46;;;;;;;156.70;81.32;;;;;;;4.12;79.25;94813.33;1752874;80;21072;-50
2020/12/15 00:24:15;;;;;;;162.20;81.32;;;;;;;4.07;79.21;94820.58;1757726;80;21517;-50
2020/12/15 00:26:43;;;;;;;162.43;80.53;;;;;;;3.99;79.30;94821.23;1765335;80;21262;-51
2020/12/15 00:29:13;;;;;;;145.02;80.42;;;;;;;3.89;79.40;94813.92;1723624;81;21139;-50
2020/12/15 00:31:43;;;;;;;129.38;76.50;;;;;;;3.86;79.62;94815.34;1760607;80;21155;-50
2020/12/15 00:34:11;;;;;;;133.30;76.25;;;;;;;3.86;79.66;94820.78;1760492;80;21116;-51
2020/12/15 00:36:41;;;;;;;130.67;76.55;;;;;;;3.85;79.70;94819.23;1762113;80;21554;-50
2020/12/15 00:39:09;;;;;;;136.15;76.40;;;;;;;3.82;79.68;94815.94;1754801;80;21175;-51
2020/12/15 00:41:39;;;;;;;136.80;77.35;;;;;;;3.78;79.67;94815.20;1767093;80;21088;-52
2020/12/15 00:44:08;;;;;;;131.95;76.57;;;;;;;3.77;79.68;94821.81;1766958;80;21630;-49
2020/12/15 00:46:37;;;;;;;139.90;81.42;;;;;;;3.72;79.53;94812.13;1759841;80;21071;-50
2020/12/15 00:49:06;;;;;;;142.18;85.65;;;;;;;3.68;79.62;94814.11;1756761;80;21143;-50
2020/12/15 00:51:34;;;;;;;149.70;86.00;;;;;;;3.65;79.57;94821.72;1751821;80;21171;-49
2020/12/15 00:54:03;;;;;;;148.02;86.05;;;;;;;3.61;79.90;94818.84;1766816;80;21091;-50
2020/12/15 00:56:32;;;;;;;151.10;86.67;;;;;;;3.61;80.00;94820.98;1768809;80;21156;-51
2020/12/15 00:59:00;;;;;;;141.35;81.10;;;;;;;3.64;79.95;94821.54;1719457;82;21210;-49
2020/12/15 01:01:30;;;;;;;133.63;79.80;;;;;;;3.63;79.89;94822.71;1757163;80;22109;-51
2020/12/15 01:03:59;;;;;;;130.82;77.42;;;;;;;3.62;79.87;94819.02;1752603;80;21123;-51
2020/12/15 01:06:27;;;;;;;123.15;74.07;;;;;;;3.60;79.96;94815.36;1760931;80;21143;-49
2020/12/15 01:08:56;;;;;;;118.50;71.50;;;;;;;3.57;79.90;94808.58;1752679;80;21119;-51
2020/12/15 01:11:33;;;;;;;119.65;67.87;;;;;;;3.55;79.92;94806.85;1744441;80;21198;-50
2020/12/15 01:14:04;;;;;;;104.70;60.38;;;;;;;3.50;79.97;94808.05;1768866;80;21262;-50
2020/12/15 01:16:33;;;;;;;92.67;57.83;;;;;;;3.50;80.25;94806.68;1707864;83;21136;-50
2020/12/15 01:19:02;;;;;;;74.62;47.00;;;;;;;3.51;80.18;94807.47;1726522;81;21079;-49
2020/12/15 01:21:32;;;;;;;99.03;63.63;;;;;;;3.48;80.29;94806.31;1720996;82;21127;-50
2020/12/15 01:24:02;;;;;;;101.85;64.97;;;;;;;3.40;80.49;94810.09;1693925;83;21090;-49
2020/12/15 01:26:33;;;;;;;81.82;54.93;;;;;;;3.37;80.96;94814.94;1763153;80;22167;-49
2020/12/15 01:29:01;;;;;;;85.32;53.40;;;;;;;3.40;80.94;94812.80;1755721;80;21733;-49
2020/12/15 01:31:31;;;;;;;92.12;55.98;;;;;;;3.34;80.88;94811.66;1769365;80;21495;-50
2020/12/15 01:34:01;;;;;;;91.00;54.95;;;;;;;3.26;81.03;94819.69;1744032;80;21114;-49
2020/12/15 01:36:50;;;;;;;100.85;55.30;;;;;;;3.27;81.41;94819.28;1753246;80;21744;-49
2020/12/15 01:39:20;;;;;;;90.65;53.25;;;;;;;3.30;81.34;94816.36;1771253;80;21369;-50
2020/12/15 01:41:50;;;;;;;81.95;49.00;;;;;;;3.31;81.49;94809.75;1737730;82;21096;-49
2020/12/15 01:44:19;;;;;;;85.05;50.12;;;;;;;3.34;81.41;94810.30;1758039;80;21069;-51
2020/12/15 01:46:50;;;;;;;96.95;50.67;;;;;;;3.34;81.18;94810.30;1757483;80;21092;-50
2020/12/15 01:49:21;;;;;;;96.72;49.88;;;;;;;3.33;81.09;94807.40;1729198;82;21164;-50
2020/12/15 01:51:59;;;;;;;101.80;55.17;;;;;;;3.37;81.06;94810.29;1890039;75;22620;-51
2020/12/15 01:54:29;;;;;;;83.27;48.05;;;;;;;3.27;81.18;94813.08;1859158;77;21029;-49
2020/12/15 01:56:58;;;;;;;79.97;45.12;;;;;;;3.31;81.65;94812.47;1860961;77;21125;-49
2020/12/15 01:59:32;;;;;;;87.50;48.15;;;;;;;3.41;81.50;94811.63;1857874;77;22195;-50
2020/12/15 02:02:01;;;;;;;110.57;51.05;;;;;;;3.41;81.30;94802.11;1860954;77;21160;-50
2020/12/15 02:04:32;;;;;;;101.78;49.90;;;;;;;3.40;81.23;94801.92;1859380;77;21175;-50
2020/12/15 02:07:02;;;;;;;84.72;42.17;;;;;;;3.38;81.28;94802.92;1860848;77;21108;-50
2020/12/15 02:09:32;;;;;;;130.45;54.73;;;;;;;3.44;81.54;94810.23;1827803;77;21372;-49
2020/12/15 02:12:10;;;;;;;143.95;53.78;;;;;;;3.53;81.59;94809.20;1803350;77;21069;-50
2020/12/15 02:14:41;;;;;;;105.20;47.30;;;;;;;3.62;81.41;94806.20;1861071;77;21041;-50
2020/12/15 02:17:13;;;;;;;90.62;43.85;;;;;;;3.63;81.25;94806.97;1827723;77;21559;-51
2020/12/15 02:20:09;;;;;;;80.22;41.85;;;;;;;3.65;81.25;94810.84;1861070;77;21068;-50
2020/12/15 02:22:39;;;;;;;89.15;44.48;;;;;;;3.69;81.05;94814.30;1858333;77;21363;-50
2020/12/15 02:25:09;;;;;;;57.93;30.40;;;;;;;3.68;80.98;94815.47;1860856;77;21065;-50
2020/12/15 02:27:38;;;;;;;43.87;24.00;;;;;;;3.64;80.97;94809.30;1860929;77;21073;-50
2020/12/15 02:30:07;;;;;;;38.58;23.45;;;;;;;3.66;80.87;94815.10;1860976;77;21484;-50
2020/12/15 02:32:38;;;;;;;48.73;27.13;;;;;;;3.64;80.64;94813.38;1828315;77;21049;-49
2020/12/15 02:35:09;;;;;;;44.98;28.02;;;;;;;3.64;80.56;94804.42;1828011;77;21193;-50
2020/12/15 02:37:37;;;;;;;46.25;27.30;;;;;;;3.67;80.47;94808.48;1860861;77;21041;-49
2020/12/15 02:40:06;;;;;;;72.03;41.77;;;;;;;3.68;80.32;94810.03;1827787;77;21211;-50
2020/12/15 02:42:48;;;;;;;58.00;36.28;;;;;;;3.69;80.40;94806.74;1858562;77;26494;-50
2020/12/15 02:45:17;;;;;;;63.15;36.13;;;;;;;3.71;80.20;94814.67;1860905;77;21092;-51
2020/12/15 02:47:45;;;;;;;54.00;30.85;;;;;;;3.74;80.26;94816.61;1865889;76;22063;-50
2020/12/15 02:50:23;;;;;;;68.83;39.95;;;;;;;3.76;80.12;94808.81;1881398;76;21592;-51
2020/12/15 02:52:53;;;;;;;58.20;35.48;;;;;;;3.78;80.06;94812.48;1806430;79;21143;-50
2020/12/15 02:55:23;;;;;;;62.08;36.88;;;;;;;3.81;80.12;94818.47;1822819;78;21110;-49
2020/12/15 02:57:52;;;;;;;36.45;23.25;;;;;;;3.85;80.01;94814.55;1807096;79;21607;-50
2020/12/15 03:00:21;;;;;;;20.32;15.58;;;;;;;3.87;79.73;94823.69;1822823;78;21461;-50
2020/12/15 03:02:53;;;;;;;17.42;14.70;;;;;;;3.88;79.70;94819.79;1806607;79;21159;-50
2020/12/15 03:05:23;;;;;;;18.85;14.87;;;;;;;3.92;79.58;94824.03;1819066;78;21130;-50
2020/12/15 03:07:57;;;;;;;19.85;16.25;;;;;;;3.97;79.45;94830.97;1822340;78;21067;-49
2020/12/15 03:10:27;;;;;;;14.13;12.58;;;;;;;3.97;79.27;94822.23;1822212;78;21055;-51
2020/12/15 03:12:57;;;;;;;14.00;12.37;;;;;;;4.03;79.06;94822.57;1822230;78;21196;-49
2020/12/15 03:15:25;;;;;;;17.25;12.80;;;;;;;4.08;78.80;94834.37;1822135;78;21150;-50
2020/12/15 03:17:54;;;;;;;28.77;25.92;;;;;;;4.11;78.50;94832.98;1822209;78;21142;-50
2020/12/15 03:20:23;;;;;;;15.08;12.93;;;;;;;4.11;78.21;94838.43;1806447;79;21167;-50
2020/12/15 03:22:51;;;;;;;21.52;19.23;;;;;;;4.08;78.30;94842.54;1822232;78;21159;-50
2020/12/15 03:25:21;;;;;;;24.87;22.42;;;;;;;4.06;78.31;94844.29;1806558;79;23106;-50
2020/12/15 03:27:52;;;;;;;25.37;22.70;;;;;;;4.07;78.47;94843.11;1821278;78;21595;-50
2020/12/15 03:30:23;;;;;;;13.88;12.43;;;;;;;4.14;78.26;94847.15;1806335;79;21162;-49
2020/12/15 03:32:52;;;;;;;18.27;14.53;;;;;;;4.17;78.03;94850.42;1792210;78;21171;-49
2020/12/15 03:35:21;;;;;;;19.23;14.98;;;;;;;4.20;78.04;94854.30;1806488;79;21036;-50
2020/12/15 03:37:50;;;;;;;21.10;15.40;;;;;;;4.23;77.84;94851.52;1822180;78;21383;-50
2020/12/15 03:40:19;;;;;;;20.08;15.35;;;;;;;4.30;77.85;94859.64;1777162;79;21103;-50
2020/12/15 03:43:06;;;;;;;20.65;15.08;;;;;;;4.35;77.47;94856.47;1822170;78;21520;-50
2020/12/15 03:45:36;;;;;;;19.37;13.88;;;;;;;4.32;77.39;94855.91;1804208;79;21128;-51
2020/12/15 03:48:05;;;;;;;15.93;11.93;;;;;;;4.36;77.28;94863.45;1822178;78;21115;-50
2020/12/15 03:50:34;;;;;;;18.05;13.58;;;;;;;4.34;77.18;94864.45;1806209;79;21255;-51
2020/12/15 03:53:03;;;;;;;18.82;14.58;;;;;;;4.37;77.25;94871.81;1792252;78;21123;-50
2020/12/15 03:55:33;;;;;;;21.68;15.50;;;;;;;4.39;77.09;94869.45;1806438;79;21136;-50
2020/12/15 03:58:03;;;;;;;15.53;12.73;;;;;;;4.42;76.90;94870.00;1821899;78;21143;-49
2020/12/15 04:00:44;;;;;;;13.70;11.70;;;;;;;4.48;76.91;94865.67;1873625;76;21832;-52
2020/12/15 04:03:20;;;;;;;20.02;15.28;;;;;;;4.47;76.74;94865.50;1841082;78;21121;-50
2020/12/15 04:06:09;;;;;;;15.98;12.07;;;;;;;4.50;76.59;94872.06;1840797;78;21341;-51
2020/12/15 04:08:41;;;;;;;13.98;12.50;;;;;;;4.49;76.37;94869.94;1841270;77;21151;-50
2020/12/15 04:11:26;;;;;;;12.07;10.48;;;;;;;4.48;76.52;94873.84;1841586;78;21113;-51
2020/12/15 04:13:55;;;;;;;17.40;11.55;;;;;;;4.48;76.36;94871.13;1841686;78;21414;-49
2020/12/15 04:16:24;;;;;;;17.00;11.50;;;;;;;4.44;76.42;94875.81;1841708;78;21465;-50
2020/12/15 04:18:54;;;;;;;16.42;11.90;;;;;;;4.41;76.53;94882.67;1839318;78;21318;-50
2020/12/15 04:21:23;;;;;;;21.60;17.70;;;;;;;4.39;76.62;94884.42;1841522;78;21089;-50
2020/12/15 04:23:52;;;;;;;15.10;13.50;;;;;;;4.40;76.62;94890.06;1841572;78;21034;-51
2020/12/15 04:26:22;;;;;;;32.88;28.32;;;;;;;4.47;76.70;94890.01;1841571;77;21165;-51
2020/12/15 04:28:52;;;;;;;24.77;19.65;;;;;;;4.57;76.53;94898.64;1841432;78;21077;-52
2020/12/15 04:31:22;;;;;;;19.23;15.45;;;;;;;4.65;76.32;94895.27;1841571;78;21346;-53
2020/12/15 04:33:53;;;;;;;19.82;15.30;;;;;;;4.69;76.01;94899.50;1841318;78;21038;-51
2020/12/15 04:36:22;;;;;;;17.87;13.30;;;;;;;4.69;75.94;94903.59;1841562;77;21481;-50
2020/12/15 04:38:50;;;;;;;22.15;16.52;;;;;;;4.73;75.76;94904.89;1841485;78;21152;-50
2020/12/15 04:41:20;;;;;;;36.58;22.02;;;;;;;4.73;75.66;94911.13;1839964;78;21105;-51
2020/12/15 04:43:49;;;;;;;23.50;16.27;;;;;;;4.72;75.66;94912.88;1841537;77;21130;-51
2020/12/15 04:46:21;;;;;;;16.00;13.15;;;;;;;4.68;75.69;94911.58;1811172;78;21123;-51
2020/12/15 04:49:05;;;;;;;17.65;14.18;;;;;;;4.64;75.61;94914.91;1817954;77;21073;-50
2020/12/15 04:52:03;;;;;;;16.35;12.45;;;;;;;4.64;75.64;94913.55;1808137;79;21096;-49
2020/12/15 04:54:42;;;;;;;16.95;13.75;;;;;;;4.71;75.51;94917.58;1890073;75;22590;-49
2020/12/15 04:57:12;;;;;;;28.90;19.75;;;;;;;4.60;75.53;94915.53;1860229;77;21083;-48
2020/12/15 04:59:42;;;;;;;33.02;22.42;;;;;;;4.63;75.58;94917.45;1860966;77;21362;-49
2020/12/15 05:02:12;;;;;;;29.10;19.85;;;;;;;4.66;75.69;94918.03;1827933;77;21065;-50
2020/12/15 05:04:42;;;;;;;28.20;18.80;;;;;;;4.71;75.84;94920.88;1860948;77;21061;-51
2020/12/15 05:07:12;;;;;;;29.50;18.60;;;;;;;4.75;75.90;94916.94;1860959;77;21069;-50
2020/12/15 05:09:50;;;;;;;24.98;17.35;;;;;;;4.77;76.04;94917.91;1859630;77;21056;-51
2020/12/15 05:12:19;;;;;;;20.37;15.25;;;;;;;4.74;76.23;94918.13;1827539;77;21349;-50
2020/12/15 05:14:51;;;;;;;24.02;17.07;;;;;;;4.81;76.25;94923.48;1860892;77;21131;-50
2020/12/15 05:17:27;;;;;;;26.55;17.30;;;;;;;4.84;75.92;94925.42;1860981;77;21041;-51
2020/12/15 05:20:08;;;;;;;28.98;18.92;;;;;;;4.80;76.17;94930.12;1858776;77;21163;-54
2020/12/15 05:22:42;;;;;;;25.60;16.95;;;;;;;4.86;76.09;94929.88;1827918;77;21140;-50
2020/12/15 05:25:30;;;;;;;27.40;17.87;;;;;;;4.88;75.98;94927.52;1827718;77;21338;-50
2020/12/15 05:28:01;;;;;;;31.12;21.23;;;;;;;4.89;75.94;94924.19;1827784;77;21103;-51
2020/12/15 05:30:30;;;;;;;27.98;18.95;;;;;;;4.89;75.76;94924.97;1827686;77;21080;-50
2020/12/15 05:33:05;;;;;;;28.27;19.50;;;;;;;4.90;75.73;94931.97;1855925;77;21158;-50
2020/12/15 05:35:46;;;;;;;29.05;19.62;;;;;;;4.94;75.67;94921.80;1890068;76;22616;-51
2020/12/15 05:38:29;;;;;;;42.15;26.82;;;;;;;4.91;75.58;94925.91;1859355;77;21156;-48
2020/12/15 05:41:15;;;;;;;26.02;20.40;;;;;;;4.94;75.44;94927.84;1860006;77;21188;-50
2020/12/15 05:43:45;;;;;;;27.35;19.65;;;;;;;4.89;74.95;94924.19;1859079;77;21472;-50
2020/12/15 05:46:19;;;;;;;24.27;18.27;;;;;;;4.86;75.21;94935.33;1860935;77;21084;-50
2020/12/15 05:48:51;;;;;;;24.23;19.45;;;;;;;4.90;74.87;94937.42;1874322;76;21051;-50
2020/12/15 05:51:19;;;;;;;29.67;22.75;;;;;;;4.88;74.80;94947.17;1807152;79;21193;-50
2020/12/15 05:53:47;;;;;;;26.07;18.10;;;;;;;4.87;74.55;94944.27;1822778;78;21369;-49
2020/12/15 05:56:21;;;;;;;31.07;21.85;;;;;;;4.83;74.82;94956.55;1807061;79;21523;-51
2020/12/15 05:58:55;;;;;;;30.32;20.77;;;;;;;4.78;75.28;94954.88;1822852;78;21119;-50
2020/12/15 06:01:23;;;;;;;35.10;24.50;;;;;;;4.75;75.42;94961.15;1822859;78;21047;-50
2020/12/15 06:03:57;;;;;;;35.00;24.75;;;;;;;4.76;75.62;94961.33;1807101;79;21547;-51
2020/12/15 06:06:26;;;;;;;34.60;24.27;;;;;;;4.77;75.85;94966.36;1822859;78;21357;-50
2020/12/15 06:08:54;;;;;;;32.80;23.75;;;;;;;4.79;75.83;94966.73;1822757;78;21072;-50
2020/12/15 06:11:23;;;;;;;35.43;24.57;;;;;;;4.75;76.10;94978.25;1807005;79;21547;-50
2020/12/15 06:13:53;;;;;;;31.77;22.75;;;;;;;4.74;76.21;94973.98;1822753;78;21131;-50
2020/12/15 06:16:22;;;;;;;28.62;22.40;;;;;;;4.74;76.15;94972.63;1807111;79;21123;-50
2020/12/15 06:18:50;;;;;;;37.35;26.62;;;;;;;4.77;76.33;94978.63;1822773;78;21252;-51
2020/12/15 06:21:19;;;;;;;42.15;28.80;;;;;;;4.82;76.31;94977.42;1806944;79;21195;-51
2020/12/15 06:23:50;;;;;;;48.10;32.42;;;;;;;4.88;76.20;94983.39;1822828;78;21503;-50
2020/12/15 06:26:27;;;;;;;44.73;31.90;;;;;;;4.94;76.26;94989.18;1766483;78;21198;-50
2020/12/15 06:28:58;;;;;;;42.90;31.60;;;;;;;4.99;75.89;94985.40;1807004;79;21044;-50
2020/12/15 06:31:26;;;;;;;36.15;25.52;;;;;;;4.98;75.67;94989.91;1822713;78;21371;-50
2020/12/15 06:33:59;;;;;;;42.98;27.85;;;;;;;4.93;75.44;94987.03;1822476;78;21281;-51
2020/12/15 06:36:32;;;;;;;52.38;30.55;;;;;;;4.86;75.60;94982.23;1822512;78;21067;-50
2020/12/15 06:39:00;;;;;;;100.27;51.10;;;;;;;4.88;75.73;94987.48;1822971;78;21564;-50
2020/12/15 06:41:29;;;;;;;96.40;47.80;;;;;;;4.91;75.70;94988.03;1822773;78;21643;-50
2020/12/15 06:44:05;;;;;;;40.63;26.02;;;;;;;4.96;75.52;94987.58;1819963;78;22466;-51
2020/12/15 06:46:33;;;;;;;34.70;20.20;;;;;;;4.96;75.39;94994.39;1822324;78;21083;-51
2020/12/15 06:49:09;;;;;;;27.17;17.85;;;;;;;4.92;75.50;94993.66;1806365;79;21136;-50
2020/12/15 06:51:35;;;;;;;25.75;19.65;;;;;;;4.93;75.43;94989.00;1821993;78;21064;-49
2020/12/15 06:54:04;;;;;;;39.92;24.05;;;;;;;4.95;75.43;94996.18;1806344;78;21072;-51
2020/12/15 06:56:37;;;;;;;52.20;31.48;;;;;;;4.98;75.13;94998.09;1822185;78;21227;-49
2020/12/15 06:59:06;;;;;;;50.95;32.20;;;;;;;4.96;75.10;94994.39;1821926;78;21067;-51
2020/12/15 07:01:34;;;;;;;68.57;39.38;;;;;;;4.90;75.06;94998.75;1806297;78;21068;-52
2020/12/15 07:04:03;;;;;;;65.15;42.23;;;;;;;4.82;74.97;95006.80;1822077;78;21127;-51
2020/12/15 07:06:32;;;;;;;58.60;36.08;;;;;;;4.76;75.30;95004.94;1821879;78;21119;-51
2020/12/15 07:09:09;;;;;;;44.05;29.98;;;;;;;4.79;75.21;95007.60;1821790;78;21376;-50
2020/12/15 07:11:39;;;;;;;50.85;34.00;;;;;;;4.85;75.04;95010.67;1806278;79;21068;-50
2020/12/15 07:14:07;;;;;;;64.50;39.95;;;;;;;4.84;74.87;95012.64;1810069;78;21138;-50
2020/12/15 07:16:36;;;;;;;86.25;55.30;;;;;;;4.90;74.93;95017.83;1790831;78;21044;-51
2020/12/15 07:19:05;;;;;;;82.05;52.48;;;;;;;4.96;75.13;95024.38;1792274;80;21084;-51
2020/12/15 07:21:34;;;;;;;93.03;57.80;;;;;;;5.07;75.13;95020.97;1783696;79;21145;-51
2020/12/15 07:24:02;;;;;;;91.97;56.98;;;;;;;5.17;74.91;95024.16;1736773;80;21228;-50
2020/12/15 07:26:31;;;;;;;94.50;54.03;;;;;;;5.20;74.79;95023.95;1789729;80;21158;-51
2020/12/15 07:29:01;;;;;;;84.58;53.98;;;;;;;5.24;74.76;95022.74;1789733;80;21130;-49
2020/12/15 07:31:32;;;;;;;94.40;57.95;;;;;;;5.31;74.62;95025.38;1789995;79;21162;-50
2020/12/15 07:34:15;;;;;;;86.82;55.70;;;;;;;5.42;74.40;95026.05;1789707;80;21416;-50
2020/12/15 07:36:46;;;;;;;107.22;67.03;;;;;;;5.50;74.21;95019.31;1789793;80;21091;-51
2020/12/15 07:39:15;;;;;;;103.70;64.30;;;;;;;5.56;73.98;95027.22;1789646;79;21162;-51
2020/12/15 07:41:45;;;;;;;114.65;71.02;;;;;;;5.56;73.75;95025.86;1789392;79;21067;-50
2020/12/15 07:44:19;;;;;;;108.87;70.42;;;;;;;5.48;73.76;95024.41;1789692;80;21167;-49
2020/12/15 07:46:47;;;;;;;;;;;;;;;5.38;74.01;95021.23;1794138;79;21360;-50
2020/12/15 07:49:16;;;;;;;117.82;72.72;;;;;;;5.31;74.28;95020.71;1789823;80;20250;-50
2020/12/15 07:51:45;;;;;;;108.57;71.97;;;;;;;5.34;74.42;95019.11;1801828;78;21136;-50
2020/12/15 07:54:13;;;;;;;93.72;61.18;;;;;;;5.40;74.31;95025.69;1796457;78;21119;-49
2020/12/15 07:56:45;;;;;;;93.52;59.50;;;;;;;5.40;74.32;95029.78;1761399;78;21197;-48
2020/12/15 07:59:13;;;;;;;66.55;40.63;;;;;;;5.43;74.19;95032.45;1789154;80;22479;-49
2020/12/15 08:01:42;;;;;;;56.30;35.75;;;;;;;5.49;73.62;95027.32;1789235;78;21155;-50
2020/12/15 08:04:13;;;;;;;60.48;39.48;;;;;;;5.47;73.45;95026.95;1794975;78;21645;-52
2020/12/15 08:09:24;;;;;;;46.08;32.30;;;;;;;5.44;73.56;95024.44;1866801;75;22350;-50
2020/12/15 08:11:53;;;;;;;51.13;34.48;;;;;;;5.47;73.59;95035.14;1825376;78;21102;-50
2020/12/15 08:14:22;;;;;;;42.58;30.02;;;;;;;5.52;73.69;95033.32;1850358;76;21377;-50
2020/12/15 08:16:50;;;;;;;41.88;28.98;;;;;;;5.63;73.28;95029.89;1872057;76;21143;-51
2020/12/15 08:19:24;;;;;;;42.43;29.20;;;;;;;5.73;73.05;95032.48;1830339;76;21102;-52
2020/12/15 08:21:54;;;;;;;54.00;36.55;;;;;;;5.88;72.69;95034.47;1829004;78;21141;-53
2020/12/15 08:24:26;;;;;;;57.80;38.10;;;;;;;5.92;72.24;95032.45;1772820;80;21131;-50
2020/12/15 08:26:53;;;;;;;44.70;30.27;;;;;;;5.93;71.94;95035.39;1726625;81;21440;-50
2020/12/15 08:29:28;;;;;;;54.58;37.33;;;;;;;5.95;71.56;95041.22;1761698;81;21136;-51
2020/12/15 08:31:57;;;;;;;44.00;28.30;;;;;;;5.98;71.50;95035.69;1750608;79;21549;-50
2020/12/15 08:34:26;;;;;;;40.23;27.87;;;;;;;5.97;71.08;95032.78;1765659;79;21169;-51
2020/12/15 08:36:55;;;;;;;42.15;27.30;;;;;;;5.95;71.12;95029.69;1777094;80;21114;-55
2020/12/15 10:41:05;;;;;;;16.50;12.15;;;;;;;8.98;60.06;94968.80;1780622;79;26498;-56
2020/12/15 10:43:34;;;;;;;11.57;9.78;;;;;;;9.13;59.43;94976.25;1772145;80;21233;-51
2020/12/15 10:46:04;;;;;;;32.03;11.65;;;;;;;9.36;58.82;94973.85;1689261;83;21297;-52
2020/12/15 10:48:33;;;;;;;20.40;9.53;;;;;;;9.62;58.43;94970.01;1762344;80;21785;-58
2020/12/15 10:51:02;;;;;;;15.78;10.68;;;;;;;10.04;57.32;94966.05;1735755;80;21662;-56
2020/12/15 10:53:30;;;;;;;10.60;8.10;;;;;;;10.34;56.45;94961.41;1694703;82;21253;-54
2020/12/15 10:55:59;;;;;;;20.68;11.35;;;;;;;10.52;55.87;94950.63;1698221;82;21187;-54
2020/12/15 10:58:27;;;;;;;12.20;10.85;;;;;;;10.42;56.06;94954.47;1754268;80;21666;-53
2020/12/15 11:00:57;;;;;;;10.93;9.08;;;;;;;10.29;56.11;94956.44;1738820;80;21142;-57
2020/12/15 11:03:27;;;;;;;16.97;10.80;;;;;;;10.15;55.85;94954.14;1707592;82;21234;-55
2020/12/15 11:05:59;;;;;;;21.60;9.90;;;;;;;10.06;56.47;94951.27;1697743;83;21186;-56
2020/12/15 11:08:28;;;;;;;12.20;9.40;;;;;;;10.15;56.14;94947.27;1744880;80;21520;-58
2020/12/15 11:10:56;;;;;;;11.15;9.55;;;;;;;10.27;55.99;94946.48;1729420;80;22253;-56
2020/12/15 11:13:25;;;;;;;12.03;9.58;;;;;;;10.30;55.70;94950.52;1717802;82;21132;-57
2020/12/15 11:15:54;;;;;;;13.40;9.95;;;;;;;10.22;55.81;94953.92;1760080;80;21538;-58
2020/12/15 11:18:22;;;;;;;13.98;10.50;;;;;;;10.26;55.99;94953.20;1722123;82;21643;-54
2020/12/15 11:20:51;;;;;;;12.68;9.60;;;;;;;10.57;55.50;94952.81;1693360;83;21171;-54
2020/12/15 11:23:20;;;;;;;10.23;8.30;;;;;;;11.03;54.47;94952.24;1705506;83;21206;-53
2020/12/15 11:25:49;;;;;;;13.98;9.10;;;;;;;11.34;53.17;94944.09;1693482;83;21148;-55
2020/12/15 11:28:18;;;;;;;15.78;9.98;;;;;;;11.63;52.88;94945.42;1682689;83;21099;-53
2020/12/15 11:30:47;;;;;;;16.20;9.10;;;;;;;12.06;52.27;94945.38;1756881;80;21080;-57
2020/12/15 11:33:17;;;;;;;22.52;8.93;;;;;;;12.54;50.83;94949.58;1762551;80;21306;-56
2020/12/15 11:35:46;;;;;;;30.85;9.90;;;;;;;12.74;49.96;94946.44;1763267;80;21408;-55
2020/12/15 11:38:15;;;;;;;23.20;10.15;;;;;;;12.98;50.04;94951.58;1749434;80;21164;-54
2020/12/15 11:40:46;;;;;;;13.10;9.80;;;;;;;13.59;48.75;94945.20;1728286;81;21029;-55
2020/12/15 11:43:16;;;;;;;12.55;9.53;;;;;;;13.93;46.95;94941.31;1706069;82;21147;-53
2020/12/15 11:45:44;;;;;;;14.68;9.53;;;;;;;14.04;46.15;94939.63;1720293;81;22220;-58
2020/12/15 11:48:13;;;;;;;16.90;8.78;;;;;;;14.23;45.75;94938.38;1704668;82;22283;-54
2020/12/15 11:50:42;;;;;;;20.12;9.18;;;;;;;14.26;45.51;94937.44;1715730;82;21729;-54
2020/12/15 11:53:10;;;;;;;17.77;8.38;;;;;;;14.23;45.50;94937.00;1725216;82;21214;-58
2020/12/15 11:55:39;;;;;;;11.85;8.55;;;;;;;14.30;45.37;94941.41;1718947;81;21178;-55
2020/12/15 11:58:07;;;;;;;11.20;7.65;;;;;;;14.46;45.66;94938.43;1716934;82;21116;-54
2020/12/15 12:00:38;;;;;;;13.22;8.88;;;;;;;14.87;44.88;94932.72;1728685;82;21197;-53
2020/12/15 12:03:06;;;;;;;13.10;10.13;;;;;;;15.42;43.80;94937.48;1725886;82;21543;-55
2020/12/15 12:05:35;;;;;;;14.80;9.35;;;;;;;16.02;42.14;94935.11;1734639;81;21177;-53
2020/12/15 12:08:04;;;;;;;18.65;11.73;;;;;;;16.28;41.50;94937.45;1748399;80;21211;-53
2020/12/15 12:10:34;;;;;;;29.72;23.07;;;;;;;16.56;41.15;94934.55;1757990;80;21564;-55
2020/12/15 12:13:03;;;;;;;12.33;11.03;;;;;;;16.89;40.38;94938.61;1752471;80;22323;-56
2020/12/15 12:15:32;;;;;;;15.28;12.20;;;;;;;17.02;39.80;94934.89;1729584;80;21095;-53
2020/12/15 12:18:01;;;;;;;15.68;12.30;;;;;;;16.88;39.76;94936.33;1714674;81;21201;-55
2020/12/15 12:20:34;;;;;;;21.40;14.28;;;;;;;16.90;39.60;94931.80;1729748;81;21268;-56
2020/12/15 12:23:04;;;;;;;12.82;8.85;;;;;;;16.93;39.44;94934.24;1719895;81;21673;-57
2020/12/15 12:25:33;;;;;;;9.98;8.90;;;;;;;16.92;39.32;94936.88;1728286;80;22280;-54
2020/12/15 12:28:01;;;;;;;10.13;8.35;;;;;;;16.70;39.32;94937.94;1734167;80;21297;-54
2020/12/15 12:30:29;;;;;;;16.25;8.03;;;;;;;16.65;39.65;94933.05;1700826;82;21162;-56
2020/12/15 12:32:59;;;;;;;8.50;7.62;;;;;;;16.67;39.57;94937.49;1729622;82;21288;-57
2020/12/15 12:35:28;;;;;;;35.60;31.60;;;;;;;16.20;40.04;94940.48;1711958;82;21216;-51
2020/12/15 12:37:56;;;;;;;11.28;7.90;;;;;;;16.06;40.53;94938.45;1726125;80;21391;-52
2020/12/15 12:40:25;;;;;;;15.95;14.23;;;;;;;16.20;40.25;94932.15;1727813;82;21145;-54
2020/12/15 12:42:59;;;;;;;21.35;10.00;;;;;;;15.97;40.37;94934.39;1722612;82;21091;-53
2020/12/15 12:45:25;;;;;;;12.90;9.08;;;;;;;15.93;40.89;94934.43;1742656;80;21190;-55
2020/12/15 12:47:53;;;;;;;13.15;10.35;;;;;;;16.09;40.48;94936.75;1722641;80;21152;-57
2020/12/15 12:50:22;;;;;;;10.15;8.63;;;;;;;16.23;39.97;94936.74;1756081;80;21225;-58
2020/12/15 12:52:50;;;;;;;14.55;10.75;;;;;;;16.17;39.94;94931.73;1713854;82;21238;-57
2020/12/15 12:55:18;;;;;;;12.78;9.60;;;;;;;16.31;39.67;94940.66;1726205;82;21301;-57
2020/12/15 12:57:49;;;;;;;18.07;15.68;;;;;;;16.28;39.58;94943.00;1690938;84;21185;-55
2020/12/15 13:00:17;;;;;;;11.73;9.08;;;;;;;16.27;39.61;94945.64;1682105;84;21090;-54
2020/12/15 13:02:45;;;;;;;11.60;9.35;;;;;;;16.28;39.52;94943.64;1680750;83;22081;-54
2020/12/15 13:05:14;;;;;;;9.83;7.55;;;;;;;16.20;39.56;94942.48;1675734;83;21224;-56
2020/12/15 13:07:46;;;;;;;16.82;7.70;;;;;;;16.35;39.47;94941.28;1731221;82;21294;-54
2020/12/15 13:10:13;;;;;;;12.03;7.47;;;;;;;16.11;39.13;94943.97;1725489;81;21155;-53
2020/12/15 13:12:41;;;;;;;13.85;11.18;;;;;;;15.24;40.48;94948.67;1735580;80;21243;-54
2020/12/15 13:15:12;;;;;;;17.27;11.53;;;;;;;14.14;42.21;94948.67;1731744;81;21474;-55
2020/12/15 13:17:42;;;;;;;16.30;12.30;;;;;;;13.06;44.16;94953.59;1712310;82;21658;-56
2020/12/15 13:20:11;;;;;;;23.05;16.20;;;;;;;12.20;45.86;94953.12;1743382;80;21616;-55
2020/12/15 13:22:39;;;;;;;24.65;17.10;;;;;;;11.29;47.82;94948.19;1745618;81;21279;-57
2020/12/15 13:25:19;;;;;;;26.85;19.57;;;;;;;10.49;49.46;94955.64;1741498;81;21627;-61
2020/12/15 13:27:48;;;;;;;24.32;18.50;;;;;;;9.86;51.30;94964.40;1728576;82;21204;-57
2020/12/15 13:30:17;;;;;;;27.62;18.70;;;;;;;9.34;52.74;94955.67;1724593;81;21187;-54
2020/12/15 13:32:47;;;;;;;23.30;16.65;;;;;;;8.87;53.98;94964.20;1731255;80;21223;-53
2020/12/15 13:35:16;;;;;;;24.40;15.98;;;;;;;8.49;55.18;94958.28;1721345;82;21167;-55
2020/12/15 13:37:47;;;;;;;21.77;16.48;;;;;;;8.12;56.41;94966.95;1720365;82;21088;-55
2020/12/15 13:40:16;;;;;;;23.25;16.93;;;;;;;7.76;57.57;94960.12;1723019;81;22062;-56
2020/12/15 13:42:44;;;;;;;30.02;18.20;;;;;;;7.41;58.47;94963.59;1711146;83;21707;-54
2020/12/15 13:45:13;;;;;;;45.45;29.92;;;;;;;7.03;59.49;94965.69;1710996;83;21334;-53